sensor_id;sensor_type;location;lat;lon;timestamp;temperature;humidity
14182;DHT22;7171;50.936;6.764;2023-07-20T00:01:49;19.60;93.30
14182;DHT22;7171;50.936;6.764;2023-07-20T00:04:16;19.60;93.30
14182;DHT22;7171;50.936;6.764;2023-07-20T00:06:42;19.60;92.90
14182;DHT22;7171;50.936;6.764;2023-07-20T00:09:09;19.60;92.90
14182;DHT22;7171;50.936;6.764;2023-07-20T00:11:37;19.60;92.90
14182;DHT22;7171;50.936;6.764;2023-07-20T00:14:04;19.50;93.00
14182;DHT22;7171;50.936;6.764;2023-07-20T00:16:32;19.50;93.10
14182;DHT22;7171;50.936;6.764;2023-07-20T00:18:59;19.50;93.20
14182;DHT22;7171;50.936;6.764;2023-07-20T00:21:26;19.50;93.20
14182;DHT22;7171;50.936;6.764;2023-07-20T00:23:53;19.50;93.50
14182;DHT22;7171;50.936;6.764;2023-07-20T00:26:19;19.40;93.00
14182;DHT22;7171;50.936;6.764;2023-07-20T00:28:48;19.40;93.20
14182;DHT22;7171;50.936;6.764;2023-07-20T00:31:15;19.40;93.30
14182;DHT22;7171;50.936;6.764;2023-07-20T00:33:43;19.40;93.30
14182;DHT22;7171;50.936;6.764;2023-07-20T00:36:10;19.30;93.40
14182;DHT22;7171;50.936;6.764;2023-07-20T00:38:36;19.40;93.60
14182;DHT22;7171;50.936;6.764;2023-07-20T00:41:03;19.30;93.60
14182;DHT22;7171;50.936;6.764;2023-07-20T00:43:30;19.30;93.60
14182;DHT22;7171;50.936;6.764;2023-07-20T00:45:57;19.30;93.80
14182;DHT22;7171;50.936;6.764;2023-07-20T00:48:23;19.30;93.80
14182;DHT22;7171;50.936;6.764;2023-07-20T00:50:52;19.30;93.80
14182;DHT22;7171;50.936;6.764;2023-07-20T00:53:19;19.30;93.80
14182;DHT22;7171;50.936;6.764;2023-07-20T00:55:45;19.30;93.90
14182;DHT22;7171;50.936;6.764;2023-07-20T00:58:12;19.20;93.90
14182;DHT22;7171;50.936;6.764;2023-07-20T01:00:39;19.20;94.00
14182;DHT22;7171;50.936;6.764;2023-07-20T01:03:06;19.20;94.00
14182;DHT22;7171;50.936;6.764;2023-07-20T01:05:54;19.20;94.00
14182;DHT22;7171;50.936;6.764;2023-07-20T01:08:30;19.10;94.00
14182;DHT22;7171;50.936;6.764;2023-07-20T01:11:04;19.10;94.10
14182;DHT22;7171;50.936;6.764;2023-07-20T01:13:33;19.00;94.00
14182;DHT22;7171;50.936;6.764;2023-07-20T01:16:01;19.00;94.20
14182;DHT22;7171;50.936;6.764;2023-07-20T01:18:28;19.00;94.20
14182;DHT22;7171;50.936;6.764;2023-07-20T01:20:59;18.90;94.20
14182;DHT22;7171;50.936;6.764;2023-07-20T01:23:43;18.90;94.20
14182;DHT22;7171;50.936;6.764;2023-07-20T01:26:32;18.90;94.30
14182;DHT22;7171;50.936;6.764;2023-07-20T01:29:21;18.80;94.30
14182;DHT22;7171;50.936;6.764;2023-07-20T01:31:52;18.80;94.20
14182;DHT22;7171;50.936;6.764;2023-07-20T01:34:19;18.70;94.40
14182;DHT22;7171;50.936;6.764;2023-07-20T01:36:50;18.70;94.30
14182;DHT22;7171;50.936;6.764;2023-07-20T01:39:19;18.70;94.40
14182;DHT22;7171;50.936;6.764;2023-07-20T01:41:47;18.60;94.50
14182;DHT22;7171;50.936;6.764;2023-07-20T01:44:14;18.60;94.60
14182;DHT22;7171;50.936;6.764;2023-07-20T01:46:40;18.60;94.80
14182;DHT22;7171;50.936;6.764;2023-07-20T01:49:08;18.50;94.60
14182;DHT22;7171;50.936;6.764;2023-07-20T01:51:35;18.50;94.60
14182;DHT22;7171;50.936;6.764;2023-07-20T01:54:02;18.50;94.70
14182;DHT22;7171;50.936;6.764;2023-07-20T01:56:28;18.50;94.80
14182;DHT22;7171;50.936;6.764;2023-07-20T01:58:55;18.40;94.90
14182;DHT22;7171;50.936;6.764;2023-07-20T02:01:22;18.40;94.90
14182;DHT22;7171;50.936;6.764;2023-07-20T02:03:48;18.40;94.90
14182;DHT22;7171;50.936;6.764;2023-07-20T02:06:16;18.30;94.90
14182;DHT22;7171;50.936;6.764;2023-07-20T02:08:43;18.30;94.90
14182;DHT22;7171;50.936;6.764;2023-07-20T02:11:10;18.30;95.10
14182;DHT22;7171;50.936;6.764;2023-07-20T02:13:36;18.30;95.20
14182;DHT22;7171;50.936;6.764;2023-07-20T02:16:04;18.30;95.30
14182;DHT22;7171;50.936;6.764;2023-07-20T02:18:30;18.20;95.20
14182;DHT22;7171;50.936;6.764;2023-07-20T02:20:58;18.20;95.40
14182;DHT22;7171;50.936;6.764;2023-07-20T02:23:26;18.20;95.40
14182;DHT22;7171;50.936;6.764;2023-07-20T02:25:53;18.20;95.40
14182;DHT22;7171;50.936;6.764;2023-07-20T02:28:20;18.20;95.50
14182;DHT22;7171;50.936;6.764;2023-07-20T02:30:46;18.10;95.40
14182;DHT22;7171;50.936;6.764;2023-07-20T02:33:15;18.10;95.40
14182;DHT22;7171;50.936;6.764;2023-07-20T02:35:42;18.10;95.50
14182;DHT22;7171;50.936;6.764;2023-07-20T02:38:08;18.10;95.50
14182;DHT22;7171;50.936;6.764;2023-07-20T02:40:36;18.00;95.50
14182;DHT22;7171;50.936;6.764;2023-07-20T02:43:03;18.00;95.60
14182;DHT22;7171;50.936;6.764;2023-07-20T02:45:30;18.00;95.60
14182;DHT22;7171;50.936;6.764;2023-07-20T02:47:56;18.00;95.70
14182;DHT22;7171;50.936;6.764;2023-07-20T02:50:23;17.90;95.80
14182;DHT22;7171;50.936;6.764;2023-07-20T02:52:50;17.90;95.90
14182;DHT22;7171;50.936;6.764;2023-07-20T02:55:16;17.90;96.00
14182;DHT22;7171;50.936;6.764;2023-07-20T02:57:46;17.90;96.00
14182;DHT22;7171;50.936;6.764;2023-07-20T03:00:13;17.90;96.20
14182;DHT22;7171;50.936;6.764;2023-07-20T03:02:41;17.90;96.20
14182;DHT22;7171;50.936;6.764;2023-07-20T03:05:09;17.90;96.10
14182;DHT22;7171;50.936;6.764;2023-07-20T03:07:35;17.80;96.00
14182;DHT22;7171;50.936;6.764;2023-07-20T03:10:03;17.80;95.90
14182;DHT22;7171;50.936;6.764;2023-07-20T03:12:32;17.80;96.00
14182;DHT22;7171;50.936;6.764;2023-07-20T03:15:01;17.80;96.10
14182;DHT22;7171;50.936;6.764;2023-07-20T03:17:28;17.70;96.20
14182;DHT22;7171;50.936;6.764;2023-07-20T03:19:55;17.80;96.40
14182;DHT22;7171;50.936;6.764;2023-07-20T03:22:21;17.80;96.50
14182;DHT22;7171;50.936;6.764;2023-07-20T03:24:49;17.80;96.70
14182;DHT22;7171;50.936;6.764;2023-07-20T03:27:16;17.80;96.20
14182;DHT22;7171;50.936;6.764;2023-07-20T03:29:43;17.80;95.80
14182;DHT22;7171;50.936;6.764;2023-07-20T03:32:11;17.80;96.00
14182;DHT22;7171;50.936;6.764;2023-07-20T03:34:38;17.80;96.30
14182;DHT22;7171;50.936;6.764;2023-07-20T03:37:05;17.80;96.40
14182;DHT22;7171;50.936;6.764;2023-07-20T03:39:32;17.80;96.50
14182;DHT22;7171;50.936;6.764;2023-07-20T03:41:58;17.80;96.40
14182;DHT22;7171;50.936;6.764;2023-07-20T03:44:25;17.80;96.50
14182;DHT22;7171;50.936;6.764;2023-07-20T03:46:52;17.90;96.40
14182;DHT22;7171;50.936;6.764;2023-07-20T03:49:20;17.90;96.70
14182;DHT22;7171;50.936;6.764;2023-07-20T03:51:47;17.90;96.70
14182;DHT22;7171;50.936;6.764;2023-07-20T03:54:13;17.90;96.50
14182;DHT22;7171;50.936;6.764;2023-07-20T03:56:40;17.90;96.40
14182;DHT22;7171;50.936;6.764;2023-07-20T03:59:07;17.90;96.40
14182;DHT22;7171;50.936;6.764;2023-07-20T04:01:34;17.90;96.40
14182;DHT22;7171;50.936;6.764;2023-07-20T04:04:04;17.90;96.40
14182;DHT22;7171;50.936;6.764;2023-07-20T04:06:32;17.90;96.70
14182;DHT22;7171;50.936;6.764;2023-07-20T04:08:59;17.90;96.60
14182;DHT22;7171;50.936;6.764;2023-07-20T04:11:26;17.90;96.80
14182;DHT22;7171;50.936;6.764;2023-07-20T04:13:52;18.00;96.90
14182;DHT22;7171;50.936;6.764;2023-07-20T04:16:20;18.00;97.00
14182;DHT22;7171;50.936;6.764;2023-07-20T04:18:47;18.00;97.20
14182;DHT22;7171;50.936;6.764;2023-07-20T04:21:13;18.00;97.30
14182;DHT22;7171;50.936;6.764;2023-07-20T04:23:41;18.10;97.40
14182;DHT22;7171;50.936;6.764;2023-07-20T04:26:08;18.10;97.80
14182;DHT22;7171;50.936;6.764;2023-07-20T04:28:35;18.20;97.70
14182;DHT22;7171;50.936;6.764;2023-07-20T04:31:11;18.20;97.70
14182;DHT22;7171;50.936;6.764;2023-07-20T04:33:38;18.20;97.50
14182;DHT22;7171;50.936;6.764;2023-07-20T04:36:05;18.30;97.50
14182;DHT22;7171;50.936;6.764;2023-07-20T04:38:32;18.30;97.70
14182;DHT22;7171;50.936;6.764;2023-07-20T04:41:00;18.30;97.60
14182;DHT22;7171;50.936;6.764;2023-07-20T04:43:29;18.30;97.70
14182;DHT22;7171;50.936;6.764;2023-07-20T04:45:56;18.30;97.70
14182;DHT22;7171;50.936;6.764;2023-07-20T04:48:23;18.30;97.70
14182;DHT22;7171;50.936;6.764;2023-07-20T04:50:50;18.40;97.70
14182;DHT22;7171;50.936;6.764;2023-07-20T04:53:17;18.30;97.70
14182;DHT22;7171;50.936;6.764;2023-07-20T04:55:48;18.40;97.80
14182;DHT22;7171;50.936;6.764;2023-07-20T04:58:17;18.40;97.70
14182;DHT22;7171;50.936;6.764;2023-07-20T05:00:44;18.40;97.80
14182;DHT22;7171;50.936;6.764;2023-07-20T05:03:11;18.40;98.00
14182;DHT22;7171;50.936;6.764;2023-07-20T05:05:38;18.40;97.80
14182;DHT22;7171;50.936;6.764;2023-07-20T05:08:05;18.50;97.90
14182;DHT22;7171;50.936;6.764;2023-07-20T05:10:31;18.50;97.90
14182;DHT22;7171;50.936;6.764;2023-07-20T05:12:58;18.50;97.90
14182;DHT22;7171;50.936;6.764;2023-07-20T05:15:26;18.40;97.80
14182;DHT22;7171;50.936;6.764;2023-07-20T05:17:53;18.50;97.90
14182;DHT22;7171;50.936;6.764;2023-07-20T05:20:20;18.50;97.80
14182;DHT22;7171;50.936;6.764;2023-07-20T05:22:47;18.50;98.00
14182;DHT22;7171;50.936;6.764;2023-07-20T05:25:14;18.50;98.00
14182;DHT22;7171;50.936;6.764;2023-07-20T05:27:44;18.60;98.20
14182;DHT22;7171;50.936;6.764;2023-07-20T05:30:12;18.60;97.70
14182;DHT22;7171;50.936;6.764;2023-07-20T05:32:40;18.60;97.90
14182;DHT22;7171;50.936;6.764;2023-07-20T05:35:07;18.60;98.20
14182;DHT22;7171;50.936;6.764;2023-07-20T05:37:36;18.60;98.20
14182;DHT22;7171;50.936;6.764;2023-07-20T05:40:05;18.60;98.20
14182;DHT22;7171;50.936;6.764;2023-07-20T05:42:33;18.60;98.30
14182;DHT22;7171;50.936;6.764;2023-07-20T05:44:59;18.60;98.40
14182;DHT22;7171;50.936;6.764;2023-07-20T05:47:26;18.60;98.40
14182;DHT22;7171;50.936;6.764;2023-07-20T05:49:54;18.60;98.40
14182;DHT22;7171;50.936;6.764;2023-07-20T05:52:21;18.60;98.40
14182;DHT22;7171;50.936;6.764;2023-07-20T05:54:48;18.60;98.00
14182;DHT22;7171;50.936;6.764;2023-07-20T05:57:14;18.70;98.20
14182;DHT22;7171;50.936;6.764;2023-07-20T05:59:41;18.60;98.10
14182;DHT22;7171;50.936;6.764;2023-07-20T06:02:09;18.60;98.10
14182;DHT22;7171;50.936;6.764;2023-07-20T06:04:36;18.60;98.30
14182;DHT22;7171;50.936;6.764;2023-07-20T06:07:04;18.60;98.40
14182;DHT22;7171;50.936;6.764;2023-07-20T06:09:33;18.60;98.60
14182;DHT22;7171;50.936;6.764;2023-07-20T06:11:59;18.70;98.80
14182;DHT22;7171;50.936;6.764;2023-07-20T06:14:26;18.70;98.90
14182;DHT22;7171;50.936;6.764;2023-07-20T06:16:53;18.70;98.80
14182;DHT22;7171;50.936;6.764;2023-07-20T06:19:19;18.80;98.80
14182;DHT22;7171;50.936;6.764;2023-07-20T06:21:48;18.80;98.80
14182;DHT22;7171;50.936;6.764;2023-07-20T06:24:17;18.80;98.80
14182;DHT22;7171;50.936;6.764;2023-07-20T06:26:44;18.80;98.80
14182;DHT22;7171;50.936;6.764;2023-07-20T06:29:10;18.80;98.80
14182;DHT22;7171;50.936;6.764;2023-07-20T06:31:37;18.80;98.80
14182;DHT22;7171;50.936;6.764;2023-07-20T06:34:04;18.80;98.80
14182;DHT22;7171;50.936;6.764;2023-07-20T06:36:31;18.90;98.90
14182;DHT22;7171;50.936;6.764;2023-07-20T06:38:57;18.90;99.10
14182;DHT22;7171;50.936;6.764;2023-07-20T06:41:25;18.90;99.10
14182;DHT22;7171;50.936;6.764;2023-07-20T06:43:52;19.00;99.20
14182;DHT22;7171;50.936;6.764;2023-07-20T06:46:23;19.00;99.10
14182;DHT22;7171;50.936;6.764;2023-07-20T06:48:50;19.10;98.80
14182;DHT22;7171;50.936;6.764;2023-07-20T06:51:17;19.10;98.70
14182;DHT22;7171;50.936;6.764;2023-07-20T06:53:44;19.10;98.70
14182;DHT22;7171;50.936;6.764;2023-07-20T06:56:11;19.10;98.70
14182;DHT22;7171;50.936;6.764;2023-07-20T06:58:39;19.10;98.70
14182;DHT22;7171;50.936;6.764;2023-07-20T07:01:06;19.10;98.80
14182;DHT22;7171;50.936;6.764;2023-07-20T07:03:33;19.10;98.80
14182;DHT22;7171;50.936;6.764;2023-07-20T07:05:59;19.20;98.80
14182;DHT22;7171;50.936;6.764;2023-07-20T07:08:26;19.20;98.80
14182;DHT22;7171;50.936;6.764;2023-07-20T07:10:53;19.20;98.90
14182;DHT22;7171;50.936;6.764;2023-07-20T07:13:19;19.20;98.90
14182;DHT22;7171;50.936;6.764;2023-07-20T07:15:47;19.20;98.90
14182;DHT22;7171;50.936;6.764;2023-07-20T07:18:14;19.30;98.90
14182;DHT22;7171;50.936;6.764;2023-07-20T07:20:41;19.30;98.90
14182;DHT22;7171;50.936;6.764;2023-07-20T07:23:07;19.40;99.00
14182;DHT22;7171;50.936;6.764;2023-07-20T07:25:34;19.40;98.90
14182;DHT22;7171;50.936;6.764;2023-07-20T07:28:01;19.40;98.80
14182;DHT22;7171;50.936;6.764;2023-07-20T07:30:27;19.40;98.90
14182;DHT22;7171;50.936;6.764;2023-07-20T07:32:55;19.50;99.00
14182;DHT22;7171;50.936;6.764;2023-07-20T07:35:22;19.60;99.00
14182;DHT22;7171;50.936;6.764;2023-07-20T07:37:49;19.60;98.90
14182;DHT22;7171;50.936;6.764;2023-07-20T07:40:16;19.60;98.80
14182;DHT22;7171;50.936;6.764;2023-07-20T07:42:43;19.70;98.80
14182;DHT22;7171;50.936;6.764;2023-07-20T07:45:11;19.70;98.70
14182;DHT22;7171;50.936;6.764;2023-07-20T07:47:39;19.70;98.60
14182;DHT22;7171;50.936;6.764;2023-07-20T07:50:07;19.70;98.50
14182;DHT22;7171;50.936;6.764;2023-07-20T07:52:34;19.70;98.50
14182;DHT22;7171;50.936;6.764;2023-07-20T07:55:01;19.70;98.60
14182;DHT22;7171;50.936;6.764;2023-07-20T07:57:29;19.70;98.60
14182;DHT22;7171;50.936;6.764;2023-07-20T07:59:56;19.80;98.70
14182;DHT22;7171;50.936;6.764;2023-07-20T08:02:23;19.80;98.80
14182;DHT22;7171;50.936;6.764;2023-07-20T08:04:49;19.90;98.80
14182;DHT22;7171;50.936;6.764;2023-07-20T08:07:18;19.90;98.70
14182;DHT22;7171;50.936;6.764;2023-07-20T08:09:45;20.00;98.70
14182;DHT22;7171;50.936;6.764;2023-07-20T08:12:12;20.00;98.60
14182;DHT22;7171;50.936;6.764;2023-07-20T08:14:39;20.10;98.60
14182;DHT22;7171;50.936;6.764;2023-07-20T08:17:06;20.10;98.60
14182;DHT22;7171;50.936;6.764;2023-07-20T08:19:33;20.20;98.40
14182;DHT22;7171;50.936;6.764;2023-07-20T08:22:00;20.30;98.20
14182;DHT22;7171;50.936;6.764;2023-07-20T08:24:28;20.30;98.00
14182;DHT22;7171;50.936;6.764;2023-07-20T08:26:55;20.30;97.90
14182;DHT22;7171;50.936;6.764;2023-07-20T08:29:21;20.40;98.00
14182;DHT22;7171;50.936;6.764;2023-07-20T08:31:48;20.40;98.10
14182;DHT22;7171;50.936;6.764;2023-07-20T08:34:15;20.50;98.00
14182;DHT22;7171;50.936;6.764;2023-07-20T08:36:42;20.60;97.90
14182;DHT22;7171;50.936;6.764;2023-07-20T08:39:09;20.60;97.80
14182;DHT22;7171;50.936;6.764;2023-07-20T08:41:37;20.70;97.50
14182;DHT22;7171;50.936;6.764;2023-07-20T08:44:05;20.70;97.30
14182;DHT22;7171;50.936;6.764;2023-07-20T08:46:33;20.70;97.30
14182;DHT22;7171;50.936;6.764;2023-07-20T08:49:01;20.80;97.30
14182;DHT22;7171;50.936;6.764;2023-07-20T08:51:29;20.80;97.20
14182;DHT22;7171;50.936;6.764;2023-07-20T08:53:57;20.80;97.10
14182;DHT22;7171;50.936;6.764;2023-07-20T08:56:25;20.80;97.10
14182;DHT22;7171;50.936;6.764;2023-07-20T08:58:54;20.80;97.10
14182;DHT22;7171;50.936;6.764;2023-07-20T09:01:21;20.80;96.90
14182;DHT22;7171;50.936;6.764;2023-07-20T09:03:49;20.80;96.90
14182;DHT22;7171;50.936;6.764;2023-07-20T09:06:15;22.80;97.60
14182;DHT22;7171;50.936;6.764;2023-07-20T09:08:42;20.80;97.10
14182;DHT22;7171;50.936;6.764;2023-07-20T09:11:12;20.80;97.00
14182;DHT22;7171;50.936;6.764;2023-07-20T09:13:39;20.90;96.70
14182;DHT22;7171;50.936;6.764;2023-07-20T09:16:07;21.00;96.80
14182;DHT22;7171;50.936;6.764;2023-07-20T09:18:34;21.10;96.80
14182;DHT22;7171;50.936;6.764;2023-07-20T09:21:05;21.10;96.70
14182;DHT22;7171;50.936;6.764;2023-07-20T09:23:33;21.20;96.60
14182;DHT22;7171;50.936;6.764;2023-07-20T09:26:00;21.30;96.40
14182;DHT22;7171;50.936;6.764;2023-07-20T09:28:27;21.30;96.30
14182;DHT22;7171;50.936;6.764;2023-07-20T09:30:54;21.30;96.10
14182;DHT22;7171;50.936;6.764;2023-07-20T09:33:24;21.30;95.90
14182;DHT22;7171;50.936;6.764;2023-07-20T09:35:51;21.30;96.00
14182;DHT22;7171;50.936;6.764;2023-07-20T09:38:18;21.30;96.00
14182;DHT22;7171;50.936;6.764;2023-07-20T09:40:44;21.30;96.10
14182;DHT22;7171;50.936;6.764;2023-07-20T09:43:11;21.40;96.30
14182;DHT22;7171;50.936;6.764;2023-07-20T09:45:40;21.40;96.30
14182;DHT22;7171;50.936;6.764;2023-07-20T09:48:08;21.50;96.20
14182;DHT22;7171;50.936;6.764;2023-07-20T09:50:39;21.60;96.10
14182;DHT22;7171;50.936;6.764;2023-07-20T09:53:09;21.60;95.60
14182;DHT22;7171;50.936;6.764;2023-07-20T09:55:39;21.60;95.30
14182;DHT22;7171;50.936;6.764;2023-07-20T09:58:06;21.60;95.20
14182;DHT22;7171;50.936;6.764;2023-07-20T10:00:35;21.60;95.10
14182;DHT22;7171;50.936;6.764;2023-07-20T10:03:03;21.60;95.10
14182;DHT22;7171;50.936;6.764;2023-07-20T10:05:33;21.60;95.20
14182;DHT22;7171;50.936;6.764;2023-07-20T10:08:02;21.70;95.30
14182;DHT22;7171;50.936;6.764;2023-07-20T10:10:32;21.70;95.30
14182;DHT22;7171;50.936;6.764;2023-07-20T10:13:01;21.80;95.20
14182;DHT22;7171;50.936;6.764;2023-07-20T10:15:30;21.80;94.90
14182;DHT22;7171;50.936;6.764;2023-07-20T10:18:06;21.80;95.00
14182;DHT22;7171;50.936;6.764;2023-07-20T10:20:36;21.80;95.00
14182;DHT22;7171;50.936;6.764;2023-07-20T10:23:04;21.80;95.00
14182;DHT22;7171;50.936;6.764;2023-07-20T10:25:31;21.80;95.10
14182;DHT22;7171;50.936;6.764;2023-07-20T10:28:04;21.80;95.00
14182;DHT22;7171;50.936;6.764;2023-07-20T10:30:32;21.80;94.40
14182;DHT22;7171;50.936;6.764;2023-07-20T10:33:00;21.80;94.40
14182;DHT22;7171;50.936;6.764;2023-07-20T10:35:28;21.80;94.30
14182;DHT22;7171;50.936;6.764;2023-07-20T10:38:01;21.90;94.40
14182;DHT22;7171;50.936;6.764;2023-07-20T10:40:31;21.90;94.50
14182;DHT22;7171;50.936;6.764;2023-07-20T10:43:03;21.90;94.60
14182;DHT22;7171;50.936;6.764;2023-07-20T10:45:50;21.90;94.60
14182;DHT22;7171;50.936;6.764;2023-07-20T10:48:19;21.90;94.40
14182;DHT22;7171;50.936;6.764;2023-07-20T10:53:34;22.00;94.40
14182;DHT22;7171;50.936;6.764;2023-07-20T10:56:11;22.00;94.10
14182;DHT22;7171;50.936;6.764;2023-07-20T10:58:39;22.00;94.10
14182;DHT22;7171;50.936;6.764;2023-07-20T11:01:06;22.00;94.10
14182;DHT22;7171;50.936;6.764;2023-07-20T11:03:33;22.20;93.90
14182;DHT22;7171;50.936;6.764;2023-07-20T11:06:30;22.30;94.00
14182;DHT22;7171;50.936;6.764;2023-07-20T11:09:04;22.40;94.00
14182;DHT22;7171;50.936;6.764;2023-07-20T11:11:34;22.50;94.00
14182;DHT22;7171;50.936;6.764;2023-07-20T11:14:02;22.60;93.90
14182;DHT22;7171;50.936;6.764;2023-07-20T11:16:37;22.70;93.30
14182;DHT22;7171;50.936;6.764;2023-07-20T11:19:05;22.80;93.30
14182;DHT22;7171;50.936;6.764;2023-07-20T11:21:37;22.90;93.40
14182;DHT22;7171;50.936;6.764;2023-07-20T11:24:05;22.90;93.40
14182;DHT22;7171;50.936;6.764;2023-07-20T11:26:44;22.90;93.50
14182;DHT22;7171;50.936;6.764;2023-07-20T11:29:11;22.90;93.40
14182;DHT22;7171;50.936;6.764;2023-07-20T11:31:39;22.90;93.00
14182;DHT22;7171;50.936;6.764;2023-07-20T11:34:06;23.00;93.00
14182;DHT22;7171;50.936;6.764;2023-07-20T11:36:33;22.90;92.80
14182;DHT22;7171;50.936;6.764;2023-07-20T11:39:00;22.90;92.80
14182;DHT22;7171;50.936;6.764;2023-07-20T11:41:30;22.90;92.70
14182;DHT22;7171;50.936;6.764;2023-07-20T11:43:58;22.90;92.40
14182;DHT22;7171;50.936;6.764;2023-07-20T11:46:25;22.80;92.50
14182;DHT22;7171;50.936;6.764;2023-07-20T11:48:57;22.80;92.50
14182;DHT22;7171;50.936;6.764;2023-07-20T11:51:25;22.80;92.40
14182;DHT22;7171;50.936;6.764;2023-07-20T11:53:52;22.80;92.30
14182;DHT22;7171;50.936;6.764;2023-07-20T11:56:19;22.70;92.10
14182;DHT22;7171;50.936;6.764;2023-07-20T11:58:46;22.70;92.00
14182;DHT22;7171;50.936;6.764;2023-07-20T12:01:14;22.60;92.10
14182;DHT22;7171;50.936;6.764;2023-07-20T12:03:42;22.50;91.90
14182;DHT22;7171;50.936;6.764;2023-07-20T12:06:10;22.50;92.00
14182;DHT22;7171;50.936;6.764;2023-07-20T12:08:38;22.40;91.80
14182;DHT22;7171;50.936;6.764;2023-07-20T12:11:06;22.40;91.80
14182;DHT22;7171;50.936;6.764;2023-07-20T12:13:37;22.40;92.00
14182;DHT22;7171;50.936;6.764;2023-07-20T12:16:11;22.30;91.90
14182;DHT22;7171;50.936;6.764;2023-07-20T12:18:40;22.30;91.90
14182;DHT22;7171;50.936;6.764;2023-07-20T12:21:07;22.20;91.90
14182;DHT22;7171;50.936;6.764;2023-07-20T12:23:38;22.30;92.00
14182;DHT22;7171;50.936;6.764;2023-07-20T12:26:10;22.30;92.00
14182;DHT22;7171;50.936;6.764;2023-07-20T12:28:39;22.30;92.10
14182;DHT22;7171;50.936;6.764;2023-07-20T12:31:07;22.30;92.00
14182;DHT22;7171;50.936;6.764;2023-07-20T12:33:35;22.30;92.00
14182;DHT22;7171;50.936;6.764;2023-07-20T12:36:04;22.40;91.80
14182;DHT22;7171;50.936;6.764;2023-07-20T12:38:30;22.40;91.90
14182;DHT22;7171;50.936;6.764;2023-07-20T12:40:57;22.50;92.10
14182;DHT22;7171;50.936;6.764;2023-07-20T12:43:25;22.50;91.80
14182;DHT22;7171;50.936;6.764;2023-07-20T12:45:52;22.60;91.80
14182;DHT22;7171;50.936;6.764;2023-07-20T12:48:19;22.70;92.00
14182;DHT22;7171;50.936;6.764;2023-07-20T12:50:46;22.70;91.90
14182;DHT22;7171;50.936;6.764;2023-07-20T12:53:15;22.90;91.90
14182;DHT22;7171;50.936;6.764;2023-07-20T12:55:42;22.90;91.90
14182;DHT22;7171;50.936;6.764;2023-07-20T12:58:09;23.00;91.60
14182;DHT22;7171;50.936;6.764;2023-07-20T13:00:36;23.00;91.60
14182;DHT22;7171;50.936;6.764;2023-07-20T13:03:03;23.10;91.50
14182;DHT22;7171;50.936;6.764;2023-07-20T13:05:30;23.10;91.60
14182;DHT22;7171;50.936;6.764;2023-07-20T13:07:58;23.10;91.30
14182;DHT22;7171;50.936;6.764;2023-07-20T13:10:26;23.10;91.10
14182;DHT22;7171;50.936;6.764;2023-07-20T13:12:54;23.00;91.30
14182;DHT22;7171;50.936;6.764;2023-07-20T13:15:24;23.10;91.50
14182;DHT22;7171;50.936;6.764;2023-07-20T13:17:50;23.00;91.40
14182;DHT22;7171;50.936;6.764;2023-07-20T13:20:17;23.00;91.30
14182;DHT22;7171;50.936;6.764;2023-07-20T13:22:44;23.00;91.10
14182;DHT22;7171;50.936;6.764;2023-07-20T13:25:11;22.90;91.00
14182;DHT22;7171;50.936;6.764;2023-07-20T13:27:39;22.90;91.00
14182;DHT22;7171;50.936;6.764;2023-07-20T13:30:07;22.90;91.10
14182;DHT22;7171;50.936;6.764;2023-07-20T13:32:35;22.80;91.20
14182;DHT22;7171;50.936;6.764;2023-07-20T13:35:03;22.80;91.10
14182;DHT22;7171;50.936;6.764;2023-07-20T13:37:30;22.80;91.10
14182;DHT22;7171;50.936;6.764;2023-07-20T13:39:56;22.80;91.00
14182;DHT22;7171;50.936;6.764;2023-07-20T13:42:23;22.90;91.10
14182;DHT22;7171;50.936;6.764;2023-07-20T13:44:51;22.90;91.10
14182;DHT22;7171;50.936;6.764;2023-07-20T13:47:18;23.00;91.30
14182;DHT22;7171;50.936;6.764;2023-07-20T13:49:44;23.10;90.90
14182;DHT22;7171;50.936;6.764;2023-07-20T13:52:11;23.10;90.80
14182;DHT22;7171;50.936;6.764;2023-07-20T13:54:38;23.10;90.80
14182;DHT22;7171;50.936;6.764;2023-07-20T13:57:05;23.10;90.70
14182;DHT22;7171;50.936;6.764;2023-07-20T13:59:32;23.10;90.80
14182;DHT22;7171;50.936;6.764;2023-07-20T14:02:00;23.20;90.50
14182;DHT22;7171;50.936;6.764;2023-07-20T14:04:26;23.20;90.40
14182;DHT22;7171;50.936;6.764;2023-07-20T14:06:54;23.20;90.40
14182;DHT22;7171;50.936;6.764;2023-07-20T14:09:21;23.20;90.40
14182;DHT22;7171;50.936;6.764;2023-07-20T14:11:48;23.30;90.50
14182;DHT22;7171;50.936;6.764;2023-07-20T14:14:15;23.30;90.30
14182;DHT22;7171;50.936;6.764;2023-07-20T14:16:41;23.40;90.40
14182;DHT22;7171;50.936;6.764;2023-07-20T14:19:09;23.50;90.30
14182;DHT22;7171;50.936;6.764;2023-07-20T14:21:36;24.20;90.00
14182;DHT22;7171;50.936;6.764;2023-07-20T14:24:03;23.80;89.70
14182;DHT22;7171;50.936;6.764;2023-07-20T14:26:30;23.90;90.50
14182;DHT22;7171;50.936;6.764;2023-07-20T14:28:57;24.10;90.40
14182;DHT22;7171;50.936;6.764;2023-07-20T14:31:23;24.30;90.50
14182;DHT22;7171;50.936;6.764;2023-07-20T14:33:50;24.50;90.00
14182;DHT22;7171;50.936;6.764;2023-07-20T14:36:18;24.70;89.50
14182;DHT22;7171;50.936;6.764;2023-07-20T14:38:46;24.80;87.60
14182;DHT22;7171;50.936;6.764;2023-07-20T14:41:12;24.90;88.40
14182;DHT22;7171;50.936;6.764;2023-07-20T14:43:39;25.00;87.90
14182;DHT22;7171;50.936;6.764;2023-07-20T14:46:06;24.90;86.60
14182;DHT22;7171;50.936;6.764;2023-07-20T14:48:32;24.90;87.30
14182;DHT22;7171;50.936;6.764;2023-07-20T14:50:59;24.90;86.90
14182;DHT22;7171;50.936;6.764;2023-07-20T14:53:27;25.00;87.40
14182;DHT22;7171;50.936;6.764;2023-07-20T14:55:58;25.00;87.90
14182;DHT22;7171;50.936;6.764;2023-07-20T14:58:25;25.00;88.00
14182;DHT22;7171;50.936;6.764;2023-07-20T15:00:52;25.00;87.40
14182;DHT22;7171;50.936;6.764;2023-07-20T15:03:18;24.90;87.20
14182;DHT22;7171;50.936;6.764;2023-07-20T15:05:45;24.80;87.20
14182;DHT22;7171;50.936;6.764;2023-07-20T15:08:12;24.70;87.10
14182;DHT22;7171;50.936;6.764;2023-07-20T15:10:40;24.70;87.10
14182;DHT22;7171;50.936;6.764;2023-07-20T15:13:07;24.60;87.10
14182;DHT22;7171;50.936;6.764;2023-07-20T15:15:34;24.50;87.30
14182;DHT22;7171;50.936;6.764;2023-07-20T15:18:00;24.50;86.40
14182;DHT22;7171;50.936;6.764;2023-07-20T15:20:27;24.40;86.50
14182;DHT22;7171;50.936;6.764;2023-07-20T15:22:57;24.40;86.50
14182;DHT22;7171;50.936;6.764;2023-07-20T15:25:24;24.40;86.70
14182;DHT22;7171;50.936;6.764;2023-07-20T15:27:52;24.40;87.00
14182;DHT22;7171;50.936;6.764;2023-07-20T15:30:18;24.40;86.40
14182;DHT22;7171;50.936;6.764;2023-07-20T15:32:45;24.40;86.20
14182;DHT22;7171;50.936;6.764;2023-07-20T15:35:12;24.40;86.60
14182;DHT22;7171;50.936;6.764;2023-07-20T15:37:38;24.40;86.30
14182;DHT22;7171;50.936;6.764;2023-07-20T15:40:06;24.40;86.00
14182;DHT22;7171;50.936;6.764;2023-07-20T15:42:34;24.40;85.80
14182;DHT22;7171;50.936;6.764;2023-07-20T15:45:02;24.40;86.10
14182;DHT22;7171;50.936;6.764;2023-07-20T15:47:29;24.40;85.20
14182;DHT22;7171;50.936;6.764;2023-07-20T15:49:55;24.50;84.60
14182;DHT22;7171;50.936;6.764;2023-07-20T15:52:23;24.50;84.50